Time;durP1;ratioP1;P1;durP2;ratioP2;P2;SDS_P1;SDS_P2;PMS_P1;PMS_P2;Temp;Humidity;BMP_temperature;BMP_pressure;BME280_temperature;BME280_humidity;BME280_pressure;Samples;Min_cycle;Max_cycle;Signal;HPM_P1;HPM_P2
2023/07/15 00:01:02;;;;;;;2.85;0.20;;;;;;;14.68;100.00;98081.59;5049141;28;20075;-81
2023/07/15 00:03:28;;;;;;;1.42;0.22;;;;;;;14.63;100.00;98082.28;5066570;28;20055;-82
2023/07/15 00:05:54;;;;;;;0.88;0.20;;;;;;;14.62;100.00;98088.59;5075236;28;20028;-83
2023/07/15 00:08:20;;;;;;;2.50;0.30;;;;;;;14.60;100.00;98080.06;5052620;28;20126;-79
2023/07/15 00:10:47;;;;;;;3.85;0.77;;;;;;;14.63;100.00;98084.94;5073773;28;20552;-80
2023/07/15 00:13:15;;;;;;;3.17;0.20;;;;;;;14.61;100.00;98076.38;5053283;28;20067;-81
2023/07/15 00:15:44;;;;;;;0.28;0.20;;;;;;;14.63;100.00;98082.28;5058636;28;20024;-83
2023/07/15 00:18:11;;;;;;;0.55;0.20;;;;;;;14.59;100.00;98069.63;5080544;28;20039;-79
2023/07/15 00:20:37;;;;;;;1.35;0.25;;;;;;;14.58;100.00;98076.81;5066362;28;20162;-82
2023/07/15 00:23:20;;;;;;;0.95;0.20;;;;;;;14.61;100.00;98072.88;5051396;28;20119;-81
2023/07/15 00:25:46;;;;;;;0.82;0.10;;;;;;;14.57;100.00;98072.53;5064474;28;21480;-82
2023/07/15 00:28:12;;;;;;;4.03;0.20;;;;;;;14.59;100.00;98073.13;5072215;28;20039;-81
2023/07/15 00:30:38;;;;;;;2.92;0.30;;;;;;;14.58;100.00;98074.16;5068791;28;20028;-80
2023/07/15 00:33:08;;;;;;;2.63;0.40;;;;;;;14.60;100.00;98071.28;5072449;28;20036;-83
2023/07/15 00:35:36;;;;;;;2.78;0.57;;;;;;;14.56;100.00;98068.25;5038068;28;20073;-83
2023/07/15 00:38:02;;;;;;;6.32;0.68;;;;;;;14.54;100.00;98061.56;5065871;28;20074;-83
2023/07/15 00:40:31;;;;;;;1.58;0.20;;;;;;;14.51;100.00;98063.63;5060188;28;20482;-82
2023/07/15 00:43:34;;;;;;;2.22;0.25;;;;;;;14.50;100.00;98062.03;5035980;28;20044;-83
2023/07/15 00:46:19;;;;;;;2.63;0.40;;;;;;;14.47;100.00;98057.16;5048998;28;20135;-82
2023/07/15 00:48:56;;;;;;;7.03;0.20;;;;;;;14.46;100.00;98060.06;5073630;28;20032;-83
2023/07/15 00:51:24;;;;;;;4.32;0.30;;;;;;;14.45;100.00;98058.41;5042486;28;20044;-82
2023/07/15 00:53:53;;;;;;;1.13;0.20;;;;;;;14.47;100.00;98056.34;5067702;28;20052;-81
2023/07/15 00:56:21;;;;;;;0.40;0.17;;;;;;;14.45;100.00;98047.78;5059365;28;20054;-81
2023/07/15 00:58:49;;;;;;;0.63;0.30;;;;;;;14.46;100.00;98049.44;5042495;28;20058;-82
2023/07/15 01:01:15;;;;;;;1.17;0.13;;;;;;;14.42;100.00;98034.97;5034477;28;20028;-81
2023/07/15 01:03:41;;;;;;;0.32;0.20;;;;;;;14.39;100.00;98046.88;5040612;28;20028;-82
2023/07/15 01:06:07;;;;;;;0.90;0.20;;;;;;;14.36;100.00;98042.84;5066293;28;20037;-82
2023/07/15 01:08:33;;;;;;;0.40;0.20;;;;;;;14.36;100.00;98045.50;5069524;28;20024;-81
2023/07/15 01:11:00;;;;;;;4.15;0.20;;;;;;;14.36;100.00;98045.50;5036247;28;20028;-81
2023/07/15 01:13:26;;;;;;;0.25;0.10;;;;;;;14.36;100.00;98040.16;5071651;28;20365;-80
2023/07/15 01:15:51;;;;;;;1.30;0.10;;;;;;;14.34;100.00;98033.44;5072820;28;20038;-82
2023/07/15 01:18:17;;;;;;;0.15;0.15;;;;;;;14.32;100.00;98032.84;5056051;28;20043;-82
2023/07/15 01:20:43;;;;;;;1.95;0.20;;;;;;;14.28;100.00;98037.84;5034561;28;20120;-81
2023/07/15 01:23:09;;;;;;;0.88;0.30;;;;;;;14.26;100.00;98023.97;5053463;28;20124;-82
2023/07/15 01:25:35;;;;;;;1.40;0.20;;;;;;;14.25;100.00;98035.63;5042468;28;20043;-81
2023/07/15 01:28:01;;;;;;;1.60;0.35;;;;;;;14.22;100.00;98028.13;5084017;28;20036;-78
2023/07/15 01:30:26;;;;;;;1.15;0.52;;;;;;;14.17;100.00;98018.19;5058585;28;20032;-82
2023/07/15 01:32:53;;;;;;;0.98;0.10;;;;;;;14.16;100.00;98019.22;5071893;28;20488;-81
2023/07/15 01:35:21;;;;;;;0.55;0.43;;;;;;;14.14;100.00;98010.69;5076906;28;20032;-82
2023/07/15 01:37:47;;;;;;;0.85;0.28;;;;;;;14.12;100.00;98020.72;5068649;28;20089;-82
2023/07/15 01:40:13;;;;;;;1.00;0.15;;;;;;;14.09;100.00;98015.84;5072464;28;20041;-81
2023/07/15 01:42:40;;;;;;;4.38;0.10;;;;;;;14.05;100.00;98012.03;5056324;28;20032;-81
2023/07/15 01:45:09;;;;;;;0.52;0.10;;;;;;;14.02;100.00;98016.75;5052885;28;20031;-81
2023/07/15 01:47:36;;;;;;;1.08;0.60;;;;;;;14.02;100.00;98011.44;5039335;28;20043;-81
2023/07/15 01:50:05;;;;;;;2.35;0.20;;;;;;;13.98;100.00;98002.31;5056598;28;20431;-81
2023/07/15 01:52:32;;;;;;;0.43;0.25;;;;;;;13.95;100.00;98005.41;5047365;28;20043;-83
2023/07/15 01:54:58;;;;;;;0.90;0.20;;;;;;;13.92;100.00;97999.75;5045866;28;20029;-82
2023/07/15 01:57:30;;;;;;;1.58;0.30;;;;;;;13.92;100.00;97991.78;5053191;28;20392;-82
2023/07/15 02:00:04;;;;;;;2.38;0.22;;;;;;;13.87;100.00;98000.44;5086631;28;20045;-82
2023/07/15 02:02:39;;;;;;;2.75;0.28;;;;;;;13.84;100.00;97995.59;5068944;28;20048;-82
2023/07/15 02:05:05;;;;;;;1.23;0.20;;;;;;;13.82;100.00;97992.34;5045696;28;20033;-81
2023/07/15 02:07:31;;;;;;;1.05;0.20;;;;;;;13.80;100.00;97989.91;5027988;28;20043;-81
2023/07/15 02:09:58;;;;;;;1.35;0.30;;;;;;;13.81;100.00;97991.53;5032792;28;20064;-83
2023/07/15 02:12:24;;;;;;;0.50;0.10;;;;;;;13.79;100.00;97976.88;5047457;28;20047;-81
2023/07/15 02:14:50;;;;;;;3.45;0.38;;;;;;;13.75;100.00;97979.97;5069959;28;20023;-82
2023/07/15 02:17:20;;;;;;;2.20;0.28;;;;;;;13.75;100.00;97976.50;5045173;28;20032;-82
2023/07/15 02:19:47;;;;;;;0.35;0.20;;;;;;;13.74;100.00;97974.91;5024321;28;20489;-82
2023/07/15 02:22:13;;;;;;;1.25;0.30;;;;;;;13.72;100.00;97971.66;5056841;28;20032;-81
2023/07/15 02:24:39;;;;;;;0.80;0.25;;;;;;;13.72;100.00;97972.47;5047996;28;20106;-84
2023/07/15 02:27:07;;;;;;;3.15;0.30;;;;;;;13.72;100.00;97964.50;5051694;28;20150;-83
2023/07/15 02:29:33;;;;;;;4.78;0.32;;;;;;;13.71;100.00;97967.38;5043097;28;20085;-80
2023/07/15 02:31:58;;;;;;;1.17;0.17;;;;;;;13.69;100.00;97967.59;5039801;28;20036;-81
2023/07/15 02:34:24;;;;;;;2.05;0.20;;;;;;;13.66;100.00;97959.28;5046758;28;20448;-81
2023/07/15 02:36:50;;;;;;;0.65;0.28;;;;;;;13.69;100.00;97964.13;5069443;28;20476;-80
2023/07/15 02:39:16;;;;;;;0.90;0.15;;;;;;;13.69;100.00;97954.34;5020930;28;20037;-80
2023/07/15 02:41:43;;;;;;;2.58;0.20;;;;;;;13.68;100.00;97950.03;5019467;28;20452;-82
2023/07/15 02:44:08;;;;;;;0.30;0.20;;;;;;;13.68;100.00;97950.03;5050676;28;20025;-82
2023/07/15 02:46:34;;;;;;;1.02;0.20;;;;;;;13.66;100.00;97952.13;5058526;28;20362;-80
2023/07/15 02:49:00;;;;;;;3.22;0.20;;;;;;;13.62;100.00;97951.78;5050284;28;20052;-81
2023/07/15 02:51:26;;;;;;;3.50;0.30;;;;;;;13.62;100.00;97948.28;5068113;28;20033;-79
2023/07/15 02:53:51;;;;;;;2.67;0.20;;;;;;;13.59;100.00;97948.75;5057921;28;20560;-81
2023/07/15 02:56:17;;;;;;;2.35;0.20;;;;;;;13.55;100.00;97945.75;5065804;28;20598;-82
2023/07/15 02:58:43;;;;;;;0.63;0.13;;;;;;;13.54;100.00;97941.47;5065160;28;20079;-83
2023/07/15 03:01:09;;;;;;;0.60;0.20;;;;;;;13.52;100.00;97944.34;5049375;28;20059;-82
2023/07/15 03:03:38;;;;;;;0.75;0.10;;;;;;;13.52;100.00;97949.66;5049865;28;20122;-82
2023/07/15 03:06:04;;;;;;;1.08;0.20;;;;;;;13.47;100.00;97935.44;5064293;28;20047;-81
2023/07/15 03:08:30;;;;;;;2.15;0.10;;;;;;;13.44;100.00;97934.00;5035914;28;20032;-80
2023/07/15 03:10:57;;;;;;;4.00;0.15;;;;;;;13.43;100.00;97934.25;5035179;28;20566;-81
2023/07/15 03:13:26;;;;;;;2.92;0.20;;;;;;;13.43;100.00;97927.09;5064807;28;20089;-82
2023/07/15 03:15:53;;;;;;;1.45;0.20;;;;;;;13.40;100.00;97925.72;5065441;28;20024;-82
2023/07/15 03:18:21;;;;;;;2.60;0.20;;;;;;;13.40;100.00;97931.03;5018392;28;20040;-79
2023/07/15 03:20:48;;;;;;;3.00;0.20;;;;;;;13.38;100.00;97929.59;5042328;28;20189;-80
2023/07/15 03:23:14;;;;;;;2.83;1.60;;;;;;;13.36;100.00;97927.19;5068430;28;20516;-81
2023/07/15 03:25:40;;;;;;;1.45;0.20;;;;;;;13.34;100.00;97926.63;5025152;28;20484;-82
2023/07/15 03:28:06;;;;;;;1.02;0.20;;;;;;;13.36;100.00;97931.69;5062198;28;20036;-82
2023/07/15 03:30:32;;;;;;;5.05;0.30;;;;;;;13.36;100.00;97926.38;5028461;28;20466;-81
2023/07/15 03:32:58;;;;;;;4.55;0.20;;;;;;;13.33;100.00;97924.19;5030192;28;20181;-82
2023/07/15 03:35:24;;;;;;;3.40;0.22;;;;;;;13.33;100.00;97919.66;5061913;28;20029;-81
2023/07/15 03:37:50;;;;;;;1.95;0.30;;;;;;;13.33;100.00;97918.88;5039976;28;20040;-81
2023/07/15 03:40:17;;;;;;;6.57;0.32;;;;;;;13.34;100.00;97913.34;5036636;28;20040;-83
2023/07/15 03:42:44;;;;;;;0.63;0.28;;;;;;;13.31;100.00;97913.81;5029767;28;20094;-80
2023/07/15 03:45:10;;;;;;;3.22;0.10;;;;;;;13.32;100.00;97910.09;5064168;28;20037;-83
2023/07/15 03:47:36;;;;;;;3.15;0.25;;;;;;;13.33;100.00;97905.63;5048880;28;20371;-83
2023/07/15 03:50:04;;;;;;;1.30;0.30;;;;;;;13.33;100.00;97909.06;5030489;28;20032;-82
2023/07/15 03:52:30;;;;;;;2.97;0.22;;;;;;;13.35;100.00;97908.84;5042289;28;20441;-81
2023/07/15 03:54:58;;;;;;;0.90;0.15;;;;;;;13.35;100.00;97909.66;5049530;28;20459;-83
2023/07/15 03:57:24;;;;;;;0.65;0.13;;;;;;;13.38;100.00;97903.06;5059450;28;20048;-82
2023/07/15 03:59:50;;;;;;;2.38;0.20;;;;;;;13.39;100.00;97904.72;5049020;28;20047;-82
2023/07/15 04:02:17;;;;;;;0.20;0.10;;;;;;;13.37;100.00;97906.78;5063559;28;20036;-83
2023/07/15 04:04:43;;;;;;;1.98;0.32;;;;;;;13.36;100.00;97905.97;5051525;28;20059;-83
2023/07/15 04:07:09;;;;;;;4.30;0.43;;;;;;;13.37;100.00;97898.81;5050823;28;20032;-81
2023/07/15 04:09:36;;;;;;;2.70;0.32;;;;;;;13.33;100.00;97906.41;5005533;28;20055;-83
2023/07/15 04:12:02;;;;;;;0.55;0.20;;;;;;;13.30;100.00;97903.41;5069753;28;20127;-81
2023/07/15 04:14:28;;;;;;;3.05;0.20;;;;;;;13.26;100.00;97898.56;5062850;28;20106;-83
2023/07/15 04:16:54;;;;;;;2.75;0.30;;;;;;;13.24;100.00;97897.16;5082849;28;20025;-82
2023/07/15 04:19:20;;;;;;;1.20;0.13;;;;;;;13.21;100.00;97898.41;5039686;28;20036;-83
2023/07/15 04:21:46;;;;;;;0.57;0.20;;;;;;;13.23;100.00;97890.25;5047709;28;20070;-82
2023/07/15 04:24:11;;;;;;;0.63;0.10;;;;;;;13.22;100.00;97894.72;5029521;28;20167;-83
2023/07/15 04:26:37;;;;;;;2.00;0.22;;;;;;;13.27;100.00;97889.56;5062479;28;20083;-83
2023/07/15 04:29:03;;;;;;;4.72;0.40;;;;;;;13.30;100.00;97896.25;5005952;28;20038;-82
2023/07/15 04:31:29;;;;;;;1.50;0.40;;;;;;;13.31;100.00;97881.16;5041352;28;20080;-82
2023/07/15 04:33:55;;;;;;;1.05;0.28;;;;;;;13.36;100.00;97878.63;5064626;28;20040;-82
2023/07/15 04:36:21;;;;;;;5.85;0.22;;;;;;;13.36;100.00;97878.63;5048425;28;20040;-82
2023/07/15 04:38:48;;;;;;;1.20;0.30;;;;;;;13.37;100.00;97878.41;5060788;28;20048;-83
2023/07/15 04:41:14;;;;;;;0.65;0.30;;;;;;;13.38;100.00;97882.66;5077624;28;20032;-83
2023/07/15 04:43:40;;;;;;;0.77;0.30;;;;;;;13.42;100.00;97885.69;5080625;28;20060;-82
2023/07/15 04:46:07;;;;;;;3.97;0.22;;;;;;;13.44;100.00;97870.31;5064200;28;20400;-82
2023/07/15 04:48:33;;;;;;;1.15;0.28;;;;;;;13.48;100.00;97868.84;5067267;28;20064;-82
2023/07/15 04:51:00;;;;;;;4.28;0.40;;;;;;;13.50;100.00;97866.81;5028673;28;20066;-82
2023/07/15 04:53:26;;;;;;;4.50;0.50;;;;;;;13.51;100.00;97873.75;5028061;28;20040;-83
2023/07/15 04:55:52;;;;;;;3.20;0.30;;;;;;;13.52;100.00;97871.91;5053150;28;20110;-83
2023/07/15 04:58:19;;;;;;;6.53;0.45;;;;;;;13.54;100.00;97863.72;5060191;28;20040;-82
2023/07/15 05:00:45;;;;;;;7.47;0.40;;;;;;;13.56;100.00;97866.94;5043594;28;20048;-81
2023/07/15 05:03:12;;;;;;;1.02;0.35;;;;;;;13.55;100.00;97868.78;5043135;28;20036;-80
2023/07/15 05:05:41;;;;;;;1.15;0.30;;;;;;;13.59;100.00;97866.47;5062745;28;21859;-79
2023/07/15 05:08:12;;;;;;;5.30;0.20;;;;;;;13.62;100.00;97858.88;5060589;28;20048;-80
2023/07/15 05:10:41;;;;;;;2.85;0.30;;;;;;;13.63;100.00;97857.03;5059285;28;20036;-81
2023/07/15 05:13:08;;;;;;;1.10;0.20;;;;;;;13.60;100.00;97866.25;5045268;28;20037;-80
2023/07/15 05:15:36;;;;;;;1.98;0.28;;;;;;;13.61;100.00;97859.91;5026460;28;20032;-80
2023/07/15 05:18:04;;;;;;;2.45;0.20;;;;;;;13.58;100.00;97863.03;5043697;28;20048;-79
2023/07/15 05:20:34;;;;;;;0.52;0.20;;;;;;;13.58;100.00;97864.88;5034895;28;20102;-79
2023/07/15 05:23:01;;;;;;;3.85;0.22;;;;;;;13.52;100.00;97867.38;5063946;28;20067;-78
2023/07/15 05:25:27;;;;;;;0.20;0.20;;;;;;;13.52;100.00;97862.09;5063265;28;20037;-81
2023/07/15 05:27:53;;;;;;;1.83;0.22;;;;;;;13.50;100.00;97861.53;5044722;28;20156;-79
2023/07/15 05:30:21;;;;;;;0.65;0.30;;;;;;;13.49;100.00;97856.41;5064118;28;20041;-79
2023/07/15 05:32:47;;;;;;;2.53;0.30;;;;;;;13.51;100.00;97857.00;5042339;28;20397;-79
2023/07/15 05:35:13;;;;;;;1.25;0.30;;;;;;;13.49;100.00;97854.53;5056167;28;20037;-79
2023/07/15 05:37:40;;;;;;;1.85;0.32;;;;;;;13.49;100.00;97853.75;5044128;28;20044;-80
2023/07/15 05:40:09;;;;;;;3.70;0.30;;;;;;;13.49;100.00;97859.84;5065091;28;20029;-80
2023/07/15 05:42:43;;;;;;;1.02;0.30;;;;;;;13.50;100.00;97864.16;5027500;28;20098;-79
2023/07/15 05:45:12;;;;;;;1.38;0.30;;;;;;;13.46;100.00;97865.63;5043054;28;20029;-80
2023/07/15 05:47:41;;;;;;;1.33;0.47;;;;;;;13.47;100.00;97861.13;5045339;28;20033;-79
2023/07/15 05:50:08;;;;;;;1.83;0.55;;;;;;;13.44;100.00;97861.59;5035586;28;20072;-81
2023/07/15 05:52:34;;;;;;;0.43;0.30;;;;;;;13.40;100.00;97859.38;5021466;28;20482;-81
2023/07/15 05:55:01;;;;;;;1.40;0.30;;;;;;;13.38;100.00;97872.06;5062835;28;20110;-81
2023/07/15 05:57:27;;;;;;;1.23;0.30;;;;;;;13.37;100.00;97859.03;5053237;28;20533;-81
2023/07/15 05:59:53;;;;;;;1.35;0.30;;;;;;;13.35;100.00;97861.91;5054265;28;20059;-80
2023/07/15 06:02:19;;;;;;;0.30;0.17;;;;;;;13.35;100.00;97861.91;5033049;28;20036;-80
2023/07/15 06:04:45;;;;;;;1.98;0.28;;;;;;;13.32;100.00;97862.34;5055316;28;20373;-81
2023/07/15 06:07:11;;;;;;;2.63;0.50;;;;;;;13.35;100.00;97859.25;5069410;28;20028;-83
2023/07/15 06:09:36;;;;;;;2.42;0.30;;;;;;;13.30;100.00;97867.06;5046123;28;20167;-81
2023/07/15 06:12:02;;;;;;;0.75;0.20;;;;;;;13.26;100.00;97855.31;5067836;28;20044;-81
2023/07/15 06:14:28;;;;;;;0.45;0.20;;;;;;;13.28;100.00;97858.53;5081292;28;20065;-80
2023/07/15 06:16:54;;;;;;;3.33;0.38;;;;;;;13.24;100.00;97855.53;5065732;28;20111;-82
2023/07/15 06:19:20;;;;;;;2.92;0.25;;;;;;;13.23;100.00;97859.22;5048292;28;20393;-80
2023/07/15 06:21:46;;;;;;;1.23;0.28;;;;;;;13.25;100.00;97848.38;5062326;28;20044;-80
2023/07/15 06:24:13;;;;;;;1.33;0.20;;;;;;;13.23;100.00;97851.28;5014921;28;20568;-80
2023/07/15 06:26:39;;;;;;;1.95;0.30;;;;;;;13.22;100.00;97852.28;5027711;28;20059;-81
2023/07/15 06:29:04;;;;;;;0.68;0.20;;;;;;;13.23;100.00;97855.75;5049719;28;21087;-81
2023/07/15 06:31:30;;;;;;;1.00;0.13;;;;;;;13.21;100.00;97852.50;5069354;28;20083;-81
2023/07/15 06:33:56;;;;;;;4.38;0.20;;;;;;;13.19;100.00;97844.78;5041651;28;20032;-80
2023/07/15 06:36:22;;;;;;;1.52;0.38;;;;;;;13.20;100.00;97858.84;5045466;28;20059;-81
2023/07/15 06:38:48;;;;;;;0.38;0.30;;;;;;;13.18;100.00;97843.16;5070655;28;20726;-81
2023/07/15 06:41:14;;;;;;;2.28;0.20;;;;;;;13.20;100.00;97848.25;5051409;28;20750;-80
2023/07/15 06:43:40;;;;;;;1.27;0.28;;;;;;;13.20;100.00;97846.41;5042145;28;20510;-80
2023/07/15 06:46:08;;;;;;;1.10;0.10;;;;;;;13.23;100.00;97845.97;5048854;28;20033;-81
2023/07/15 06:48:34;;;;;;;0.38;0.15;;;;;;;13.15;100.00;97836.47;5064117;28;20028;-80
2023/07/15 06:51:00;;;;;;;6.13;0.20;;;;;;;13.19;100.00;97842.13;5049774;28;20021;-81
2023/07/15 06:53:26;;;;;;;0.73;0.13;;;;;;;13.13;100.00;97843.03;5019118;28;20036;-81
2023/07/15 06:55:52;;;;;;;0.20;0.20;;;;;;;13.19;100.00;97844.78;5068425;28;20021;-80
2023/07/15 06:58:17;;;;;;;0.98;0.20;;;;;;;13.15;100.00;97839.09;5034493;28;20040;-79
2023/07/15 07:00:43;;;;;;;1.60;0.30;;;;;;;13.17;100.00;97833.56;5059419;28;20481;-79
2023/07/15 07:03:09;;;;;;;0.73;0.40;;;;;;;13.20;100.00;97843.75;5063366;28;20032;-80
2023/07/15 07:05:35;;;;;;;2.30;0.10;;;;;;;13.19;100.00;97834.16;5047390;28;20032;-81
2023/07/15 07:08:01;;;;;;;1.02;0.13;;;;;;;13.18;100.00;97816.66;5069833;28;20044;-78
2023/07/15 07:10:27;;;;;;;1.75;0.20;;;;;;;13.15;100.00;97835.66;5049186;28;20396;-80
2023/07/15 07:12:53;;;;;;;0.95;0.10;;;;;;;13.13;100.00;97833.25;5037669;28;20039;-79
2023/07/15 07:15:19;;;;;;;0.10;0.10;;;;;;;13.14;100.00;97832.19;5023829;28;20465;-80
2023/07/15 07:17:45;;;;;;;0.40;0.10;;;;;;;13.12;100.00;97830.81;5057109;28;20704;-81
2023/07/15 07:20:11;;;;;;;0.47;0.13;;;;;;;13.09;100.00;97833.91;5017856;28;20393;-80
2023/07/15 07:22:36;;;;;;;0.10;0.10;;;;;;;13.12;100.00;97844.88;5033376;28;20086;-79
2023/07/15 07:25:03;;;;;;;4.47;0.20;;;;;;;13.13;100.00;97840.38;5068543;28;20113;-79
2023/07/15 07:27:29;;;;;;;0.47;0.15;;;;;;;13.11;100.00;97851.22;5039524;28;20087;-79
2023/07/15 07:29:58;;;;;;;1.23;0.15;;;;;;;13.10;100.00;97852.25;5032040;28;20033;-80
2023/07/15 07:32:24;;;;;;;1.63;0.10;;;;;;;13.14;100.00;97868.50;5035783;28;20393;-80
2023/07/15 07:34:50;;;;;;;1.13;0.20;;;;;;;13.12;100.00;97862.63;5063736;28;20374;-79
2023/07/15 07:37:16;;;;;;;0.73;0.10;;;;;;;13.15;100.00;97867.50;5045948;28;20043;-79
2023/07/15 07:39:41;;;;;;;2.88;0.20;;;;;;;13.17;100.00;97865.41;5068617;28;20032;-80
2023/07/15 07:42:08;;;;;;;0.73;0.20;;;;;;;13.18;100.00;97869.69;5051424;28;20071;-80
2023/07/15 07:44:34;;;;;;;0.20;0.00;;;;;;;13.22;100.00;97870.84;5057660;28;20472;-80
2023/07/15 07:47:00;;;;;;;0.32;0.10;;;;;;;13.22;100.00;97870.84;5068313;28;20036;-81
2023/07/15 07:49:26;;;;;;;1.08;0.20;;;;;;;13.27;100.00;97876.28;5045864;28;20459;-81
2023/07/15 07:51:52;;;;;;;0.70;0.10;;;;;;;13.29;100.00;97868.13;5069286;28;20032;-81
2023/07/15 07:54:17;;;;;;;0.15;0.10;;;;;;;13.33;100.00;97874.56;5047004;28;20029;-79
2023/07/15 07:56:43;;;;;;;0.13;0.10;;;;;;;13.34;100.00;97875.38;5048199;28;20064;-80
2023/07/15 07:59:09;;;;;;;1.15;0.20;;;;;;;13.35;100.00;97874.34;5050381;28;20503;-81
2023/07/15 08:01:35;;;;;;;0.20;0.10;;;;;;;13.33;100.00;97871.91;5048332;28;20143;-79
2023/07/15 08:04:02;;;;;;;0.10;0.05;;;;;;;13.36;100.00;97882.06;5044428;28;20036;-78
2023/07/15 08:06:28;;;;;;;0.30;0.10;;;;;;;13.40;100.00;97874.47;5062212;28;20051;-80
2023/07/15 08:08:54;;;;;;;0.35;0.10;;;;;;;13.41;100.00;97878.75;5061097;28;20129;-78
2023/07/15 08:11:20;;;;;;;0.60;0.10;;;;;;;13.46;100.00;97875.41;5032149;28;20534;-79
2023/07/15 08:13:46;;;;;;;0.20;0.10;;;;;;;13.49;100.00;97872.34;5020533;28;20076;-78
2023/07/15 08:16:34;;;;;;;0.70;0.13;;;;;;;13.57;100.00;97865.91;5048892;28;20082;-78
2023/07/15 08:19:01;;;;;;;0.10;0.00;;;;;;;13.57;100.00;97872.00;5055279;28;20180;-78
2023/07/15 08:21:27;;;;;;;0.35;0.10;;;;;;;13.61;100.00;97877.69;5061318;28;20044;-80
2023/07/15 08:23:54;;;;;;;0.45;0.10;;;;;;;13.63;100.00;97876.41;5066878;28;20048;-79
2023/07/15 08:26:21;;;;;;;0.05;0.00;;;;;;;13.65;100.00;97876.19;5017727;28;20050;-79
2023/07/15 08:28:47;;;;;;;0.10;0.00;;;;;;;13.66;100.00;97879.66;5012800;28;20041;-79
2023/07/15 08:31:13;;;;;;;0.00;0.00;;;;;;;13.67;100.00;97875.94;5029339;28;20103;-79
2023/07/15 08:33:38;;;;;;;0.00;0.00;;;;;;;13.71;100.00;97879.78;5078841;28;20576;-80
2023/07/15 08:36:04;;;;;;;0.20;0.10;;;;;;;13.80;100.00;97874.94;5049735;28;20162;-79
2023/07/15 08:38:30;;;;;;;0.20;0.10;;;;;;;13.86;100.00;97871.34;5062815;28;20028;-79
2023/07/15 08:40:59;;;;;;;0.45;0.15;;;;;;;13.91;100.00;97875.97;5078405;28;20096;-79
2023/07/15 08:43:26;;;;;;;1.05;0.10;;;;;;;13.91;100.00;97868.84;5043436;28;20066;-80
2023/07/15 08:45:58;;;;;;;0.25;0.15;;;;;;;14.00;100.00;97866.63;5058883;28;20039;-81
2023/07/15 08:48:24;;;;;;;1.27;0.30;;;;;;;13.98;100.00;97866.84;5065518;28;20385;-80
2023/07/15 08:50:50;;;;;;;1.13;0.30;;;;;;;14.02;100.00;97875.19;5048194;28;20032;-83
2023/07/15 08:53:26;;;;;;;0.40;0.25;;;;;;;14.12;100.00;97875.44;5063709;28;20032;-82
2023/07/15 08:55:55;;;;;;;1.30;0.20;;;;;;;14.17;100.00;97868.59;5065453;28;20035;-81
2023/07/15 08:58:21;;;;;;;2.30;0.20;;;;;;;14.13;100.00;97866.41;5060845;28;20520;-80
2023/07/15 09:00:48;;;;;;;2.42;0.30;;;;;;;14.21;100.00;97872.41;5045046;28;20068;-79
2023/07/15 09:03:14;;;;;;;1.17;0.20;;;;;;;14.21;100.00;97865.25;5063545;28;20066;-81
2023/07/15 09:05:40;;;;;;;2.33;0.30;;;;;;;14.25;100.00;97868.25;5024176;28;20033;-79
2023/07/15 09:08:12;;;;;;;0.55;0.10;;;;;;;14.28;100.00;97857.16;5065066;28;20040;-79
2023/07/15 09:10:58;;;;;;;7.03;0.63;;;;;;;14.31;100.00;97861.19;5050734;28;20036;-80
2023/07/15 09:13:27;;;;;;;3.08;0.35;;;;;;;14.32;100.00;97865.47;5067319;28;20510;-81
2023/07/15 09:15:54;;;;;;;0.22;0.15;;;;;;;14.33;100.00;97875.06;5005031;28;20554;-80
2023/07/15 09:18:20;;;;;;;1.63;0.25;;;;;;;14.36;100.00;97875.41;5060174;28;20033;-80
2023/07/15 09:20:46;;;;;;;0.32;0.20;;;;;;;14.37;100.00;97879.69;5010219;28;20050;-80
2023/07/15 09:23:13;;;;;;;0.75;0.30;;;;;;;14.38;100.00;97877.84;5016073;28;20036;-82
2023/07/15 09:25:48;;;;;;;1.35;0.20;;;;;;;14.42;100.00;97884.28;5026311;28;20029;-79
2023/07/15 09:28:14;;;;;;;0.95;0.40;;;;;;;14.44;100.00;97882.22;5064876;28;20111;-79
2023/07/15 09:30:40;;;;;;;1.73;0.32;;;;;;;14.50;100.00;97877.81;5047348;28;20393;-80
2023/07/15 09:33:07;;;;;;;1.83;0.47;;;;;;;14.56;100.00;97884.84;5025768;28;20037;-80
2023/07/15 09:35:36;;;;;;;2.65;0.40;;;;;;;14.58;100.00;97879.31;5063202;28;20028;-80
2023/07/15 09:38:03;;;;;;;1.38;0.50;;;;;;;14.58;100.00;97890.75;5083851;28;21165;-79
2023/07/15 09:40:45;;;;;;;3.50;0.63;;;;;;;14.63;100.00;97882.88;5031305;28;20551;-79
2023/07/15 09:43:11;;;;;;;3.28;0.32;;;;;;;14.63;100.00;97874.09;5066510;28;20177;-79
2023/07/15 09:45:39;;;;;;;0.70;0.30;;;;;;;14.59;100.00;97881.72;5077482;28;20036;-79
2023/07/15 09:48:16;;;;;;;2.67;0.38;;;;;;;14.61;100.00;97877.00;5047887;28;20063;-79
2023/07/15 09:50:42;;;;;;;2.40;0.40;;;;;;;14.61;100.00;97878.81;5046962;28;20121;-78
2023/07/15 09:53:09;;;;;;;1.33;0.55;;;;;;;14.66;100.00;97881.59;5033400;28;20772;-80
2023/07/15 09:55:37;;;;;;;2.20;0.60;;;;;;;14.71;100.00;97883.56;5054364;28;20032;-80
2023/07/15 09:58:13;;;;;;;4.05;0.40;;;;;;;14.81;100.00;97883.78;5054908;28;20040;-79
2023/07/15 10:00:45;;;;;;;1.58;0.60;;;;;;;14.85;100.00;97873.47;5048753;28;20558;-79
2023/07/15 10:03:18;;;;;;;2.10;0.30;;;;;;;14.87;100.00;97885.50;5059124;28;20067;-79
2023/07/15 10:05:46;;;;;;;3.50;0.30;;;;;;;14.80;100.00;97892.81;5072099;28;20389;-81
2023/07/15 10:08:13;;;;;;;1.48;0.40;;;;;;;14.84;100.00;97890.50;5032164;28;20118;-80
2023/07/15 10:10:40;;;;;;;1.50;0.50;;;;;;;14.82;100.00;97896.03;5046388;28;20030;-78
2023/07/15 10:13:07;;;;;;;3.58;0.40;;;;;;;14.83;100.00;97892.34;5064525;28;20032;-79
2023/07/15 10:15:33;;;;;;;1.38;0.40;;;;;;;14.85;100.00;97902.72;5025851;28;20017;-77
2023/07/15 10:18:16;;;;;;;2.17;0.40;;;;;;;14.86;100.00;97899.84;5053028;28;20044;-79
2023/07/15 10:20:53;;;;;;;2.35;0.40;;;;;;;14.83;100.00;97905.63;5066398;28;20477;-79
2023/07/15 10:23:27;;;;;;;1.67;0.40;;;;;;;14.84;100.00;97883.31;5057408;28;20041;-80
2023/07/15 10:26:03;;;;;;;0.93;0.30;;;;;;;14.83;100.00;97916.25;5066255;28;20064;-78
2023/07/15 10:28:32;;;;;;;2.40;0.30;;;;;;;14.88;100.00;97910.25;5062235;28;20036;-81
2023/07/15 10:31:08;;;;;;;1.90;0.30;;;;;;;14.92;100.00;97919.38;5053981;28;20397;-81
2023/07/15 10:33:55;;;;;;;1.45;0.32;;;;;;;14.88;100.00;97923.53;5026380;28;20062;-81
2023/07/15 10:36:47;;;;;;;1.33;0.50;;;;;;;14.93;100.00;97922.84;5032477;28;20409;-81
2023/07/15 10:39:22;;;;;;;1.92;0.47;;;;;;;14.94;100.00;97914.63;5039927;28;20082;-80
2023/07/15 10:41:51;;;;;;;1.38;0.32;;;;;;;14.93;100.00;97920.16;5016828;28;20059;-80
2023/07/15 10:44:20;;;;;;;3.72;0.30;;;;;;;14.92;100.00;97916.72;5050070;28;20134;-80
2023/07/15 10:47:07;;;;;;;3.20;0.22;;;;;;;14.87;100.00;97920.06;5026014;28;20061;-79
2023/07/15 10:49:34;;;;;;;1.52;0.45;;;;;;;14.76;100.00;97921.69;5046065;28;20489;-78
2023/07/15 10:52:03;;;;;;;2.03;0.95;;;;;;;14.76;100.00;97928.88;5068792;28;20028;-79
2023/07/15 10:54:31;;;;;;;1.90;0.28;;;;;;;14.72;100.00;97928.53;5067879;28;20086;-77
2023/07/15 10:56:57;;;;;;;0.73;0.30;;;;;;;14.73;100.00;97929.34;5018070;28;20508;-79
2023/07/15 10:59:35;;;;;;;1.27;0.30;;;;;;;14.84;100.00;97936.50;5061038;28;20044;-81
2023/07/15 11:02:01;;;;;;;0.80;0.30;;;;;;;14.89;100.00;97930.50;5049038;28;20386;-81
2023/07/15 11:04:27;;;;;;;4.55;0.50;;;;;;;15.00;100.00;97931.50;5049611;28;20037;-82
2023/07/15 11:06:59;;;;;;;2.30;0.47;;;;;;;15.19;100.00;97934.81;5048257;28;20025;-79
2023/07/15 11:09:26;;;;;;;2.05;0.47;;;;;;;15.25;100.00;97922.38;5063849;28;20045;-77
2023/07/15 11:11:52;;;;;;;3.60;0.60;;;;;;;15.35;100.00;97940.41;5080230;28;20116;-80
2023/07/15 11:14:21;;;;;;;2.67;0.65;;;;;;;15.44;100.00;97936.31;5062259;28;20480;-79
2023/07/15 11:16:49;;;;;;;3.08;0.40;;;;;;;15.52;100.00;97940.44;5021880;28;20036;-82
2023/07/15 11:19:15;;;;;;;2.80;0.70;;;;;;;15.54;100.00;97937.53;5067881;28;20032;-80
2023/07/15 11:21:44;;;;;;;2.83;0.70;;;;;;;15.62;100.00;97948.59;5053209;28;20493;-79
2023/07/15 11:24:12;;;;;;;0.63;0.40;;;;;;;15.65;100.00;97934.00;5049237;28;20039;-80
2023/07/15 11:26:42;;;;;;;4.05;0.77;;;;;;;15.63;100.00;97944.91;5039949;28;20040;-79